Time;durP1;ratioP1;P1;durP2;ratioP2;P2;SDS_P1;SDS_P2;PMS_P1;PMS_P2;Temp;Humidity;BMP_temperature;BMP_pressure;BME280_temperature;BME280_humidity;BME280_pressure;Samples;Min_cycle;Max_cycle;Signal;HPM_P1;HPM_P2
2021/03/20 00:01:02;;;;;;;2.50;2.40;;;;;;;2.19;70.92;93367.25;5092880;28;20047;-58
2021/03/20 00:03:28;;;;;;;0.68;0.68;;;;;;;2.32;70.29;93363.31;5111101;28;20038;-58
2021/03/20 00:05:54;;;;;;;2.50;2.28;;;;;;;2.14;71.02;93362.56;5111348;28;20016;-58
2021/03/20 00:08:21;;;;;;;1.20;1.13;;;;;;;2.19;70.86;93367.25;5092735;28;20431;-58
2021/03/20 00:10:47;;;;;;;1.67;1.58;;;;;;;2.29;70.91;93362.31;5111322;28;20032;-58
2021/03/20 00:13:14;;;;;;;1.65;1.55;;;;;;;2.20;70.21;93374.22;5111015;28;20026;-58
2021/03/20 00:15:40;;;;;;;2.40;0.98;;;;;;;2.23;69.85;93367.03;5092885;28;20034;-58
2021/03/20 00:18:05;;;;;;;2.08;1.85;;;;;;;2.28;70.17;93366.25;5118292;27;20428;-58
2021/03/20 00:20:35;;;;;;;2.63;2.45;;;;;;;2.34;69.90;93369.00;5131519;27;20537;-59
2021/03/20 00:23:00;;;;;;;1.85;1.75;;;;;;;2.19;70.37;93371.97;5131724;27;20122;-58
2021/03/20 00:25:26;;;;;;;2.35;2.17;;;;;;;2.30;70.36;93361.81;5131428;27;20118;-58
2021/03/20 00:27:52;;;;;;;0.95;0.95;;;;;;;2.39;69.75;93357.31;5131511;27;20471;-58
2021/03/20 00:30:18;;;;;;;1.80;1.40;;;;;;;2.41;69.61;93366.50;5131335;27;20019;-58
2021/03/20 00:32:44;;;;;;;2.53;2.38;;;;;;;2.33;70.54;93357.34;5131402;27;20396;-58
2021/03/20 00:35:11;;;;;;;1.40;1.27;;;;;;;2.20;70.80;93359.84;5131351;27;20030;-58
2021/03/20 00:37:37;;;;;;;0.63;0.63;;;;;;;2.20;71.63;93349.69;5131605;27;20026;-58
2021/03/20 00:40:08;;;;;;;1.13;1.13;;;;;;;2.09;71.55;93351.69;5131381;27;20023;-58
2021/03/20 00:42:34;;;;;;;2.33;2.22;;;;;;;2.09;71.51;93360.59;5112943;28;20453;-57
2021/03/20 00:44:59;;;;;;;2.05;1.95;;;;;;;2.07;71.92;93354.16;5131245;28;20083;-52
2021/03/20 00:47:25;;;;;;;5.88;3.47;;;;;;;1.87;72.07;93354.41;5131244;28;20526;-54
2021/03/20 00:49:50;;;;;;;1.50;1.48;;;;;;;1.88;73.30;93347.72;5131134;28;20029;-55
2021/03/20 00:52:16;;;;;;;1.85;1.75;;;;;;;2.10;73.54;93359.34;5131399;28;20120;-49
2021/03/20 00:54:41;;;;;;;2.47;1.08;;;;;;;2.24;72.70;93352.16;5127743;28;20508;-52
2021/03/20 00:57:07;;;;;;;0.77;0.77;;;;;;;2.37;71.04;93341.50;5110577;28;20401;-54
2021/03/20 00:59:32;;;;;;;3.08;2.92;;;;;;;2.26;71.14;93323.19;5110734;28;20026;-52
2021/03/20 01:01:58;;;;;;;3.25;3.05;;;;;;;2.37;70.55;93351.63;5110549;28;20636;-48
2021/03/20 01:04:23;;;;;;;1.65;1.55;;;;;;;2.31;71.45;93338.03;5110460;28;20024;-47
2021/03/20 01:06:48;;;;;;;2.08;1.85;;;;;;;2.28;71.96;93339.03;5110726;28;20031;-51
2021/03/20 01:09:14;;;;;;;3.22;2.50;;;;;;;2.31;71.32;93340.75;5110509;28;20694;-47
2021/03/20 01:11:39;;;;;;;1.95;1.75;;;;;;;2.30;71.31;93339.25;5110479;28;20393;-48
2021/03/20 01:14:05;;;;;;;2.88;2.67;;;;;;;2.33;72.59;93341.00;5110728;28;20028;-47
2021/03/20 01:16:30;;;;;;;2.47;1.83;;;;;;;2.41;72.26;93339.25;5110779;28;20531;-49
2021/03/20 01:18:56;;;;;;;1.70;1.38;;;;;;;2.41;72.03;93344.69;5110450;28;20423;-48
2021/03/20 01:21:23;;;;;;;1.60;1.52;;;;;;;2.36;72.01;93353.63;5113680;28;20030;-52
2021/03/20 01:23:48;;;;;;;2.30;2.20;;;;;;;2.41;72.16;93350.16;5114515;28;20044;-48
2021/03/20 01:26:14;;;;;;;9.57;5.95;;;;;;;2.43;71.50;93330.56;5114072;28;20543;-51
2021/03/20 01:28:42;;;;;;;3.17;2.63;;;;;;;2.46;71.53;93357.56;5114307;28;20504;-48
2021/03/20 01:31:11;;;;;;;5.65;2.10;;;;;;;2.50;70.72;93343.69;5114198;28;20591;-60
2021/03/20 01:33:36;;;;;;;3.80;3.45;;;;;;;2.50;71.00;93354.59;5112758;27;20055;-59
2021/03/20 01:36:02;;;;;;;2.50;2.40;;;;;;;2.42;71.29;93346.19;5114068;28;20559;-53
2021/03/20 01:38:28;;;;;;;2.92;2.35;;;;;;;2.42;71.01;93354.38;5114125;28;20404;-58
2021/03/20 01:41:00;;;;;;;2.75;2.55;;;;;;;2.34;72.17;93349.91;5114174;28;20016;-58
2021/03/20 01:43:28;;;;;;;3.28;3.08;;;;;;;2.37;71.61;93359.81;5114064;28;20074;-58
2021/03/20 01:45:54;;;;;;;4.97;4.50;;;;;;;2.36;72.57;93359.06;5113892;28;20439;-60
2021/03/20 01:48:34;;;;;;;4.15;2.40;;;;;;;2.09;72.41;93357.13;5113899;28;20031;-57
2021/03/20 01:51:02;;;;;;;4.22;2.97;;;;;;;1.84;73.19;93347.97;5095681;28;20602;-60
2021/03/20 01:53:38;;;;;;;1.50;1.40;;;;;;;1.51;74.36;93342.50;5113866;28;20024;-59
2021/03/20 01:56:15;;;;;;;3.50;3.25;;;;;;;1.79;74.36;93343.28;5095495;28;20264;-59
2021/03/20 01:58:41;;;;;;;1.55;1.45;;;;;;;1.92;74.66;93345.50;5095579;28;20051;-59
2021/03/20 02:01:25;;;;;;;1.10;1.10;;;;;;;2.04;74.24;93341.53;5113655;28;20027;-59
2021/03/20 02:03:51;;;;;;;3.33;2.10;;;;;;;2.07;74.17;93349.47;5095586;28;20016;-59
2021/03/20 02:06:17;;;;;;;2.67;2.50;;;;;;;2.16;73.97;93349.22;5130672;27;20457;-59
2021/03/20 02:08:44;;;;;;;3.15;2.58;;;;;;;2.32;73.28;93346.97;5134120;27;20024;-59
2021/03/20 02:11:31;;;;;;;3.97;3.67;;;;;;;2.43;73.58;93355.09;5115432;27;20037;-59
2021/03/20 02:14:00;;;;;;;8.88;2.83;;;;;;;2.26;73.46;93353.16;5105521;28;20081;-59
2021/03/20 02:16:47;;;;;;;1.80;1.75;;;;;;;2.35;72.68;93346.69;5091880;28;20032;-59
2021/03/20 02:19:22;;;;;;;1.90;1.80;;;;;;;2.34;72.84;93358.09;5091687;28;20028;-58
2021/03/20 02:22:28;;;;;;;1.98;1.48;;;;;;;2.32;72.84;93341.50;5094812;28;20111;-58
2021/03/20 02:25:44;;;;;;;1.88;1.77;;;;;;;2.33;72.25;93351.91;5070887;28;20642;-60
2021/03/20 02:28:28;;;;;;;3.15;2.65;;;;;;;2.43;71.57;93342.22;5056884;28;20087;-60
2021/03/20 02:31:30;;;;;;;2.03;1.92;;;;;;;2.35;71.30;93354.13;5125244;27;20065;-56
2021/03/20 02:33:58;;;;;;;3.25;2.40;;;;;;;2.41;70.75;93354.84;5092668;28;20028;-57
2021/03/20 02:36:38;;;;;;;2.50;1.58;;;;;;;2.30;71.35;93366.50;5092595;28;20497;-56
2021/03/20 02:39:32;;;;;;;1.67;1.63;;;;;;;2.48;70.44;93360.53;5074496;28;20492;-56
2021/03/20 02:42:21;;;;;;;3.42;3.22;;;;;;;2.52;70.87;93361.03;5092559;28;20028;-55
2021/03/20 02:44:51;;;;;;;;;;;;;;;2.41;70.66;93371.94;5074646;28;20024;-60
2021/03/20 02:47:23;;;;;;;2.10;2.00;;;;;;;2.27;71.54;93373.69;5074403;28;19965;-60
2021/03/20 02:50:05;;;;;;;2.15;2.05;;;;;;;2.30;71.55;93366.50;5100459;28;20044;-59
2021/03/20 02:52:39;;;;;;;6.80;2.55;;;;;;;2.34;72.23;93379.88;5094656;28;20038;-58
2021/03/20 02:55:10;;;;;;;2.63;2.50;;;;;;;2.22;72.38;93373.69;5097448;27;20062;-57
2021/03/20 02:58:02;;;;;;;0.98;0.98;;;;;;;2.32;72.29;93374.19;5133272;27;20452;-57
2021/03/20 03:00:32;;;;;;;2.92;2.72;;;;;;;2.32;72.39;93369.47;5114731;27;20042;-57
2021/03/20 03:02:58;;;;;;;0.93;0.93;;;;;;;2.33;72.20;93359.31;5114951;27;20027;-57
2021/03/20 03:05:27;;;;;;;0.85;0.85;;;;;;;2.19;72.56;93356.38;5114681;27;20031;-55
2021/03/20 03:07:59;;;;;;;2.80;1.88;;;;;;;2.09;72.72;93360.59;5114625;27;20027;-57
2021/03/20 03:10:49;;;;;;;0.70;0.70;;;;;;;2.02;73.12;93349.44;5114408;27;20030;-55
2021/03/20 03:13:24;;;;;;;3.45;3.15;;;;;;;2.19;73.06;93358.34;5113788;27;20076;-54
2021/03/20 03:15:54;;;;;;;1.73;1.70;;;;;;;2.00;73.85;93365.53;5094085;28;20030;-55
2021/03/20 03:18:34;;;;;;;2.20;1.60;;;;;;;1.95;74.29;93363.56;5093915;28;20038;-56
2021/03/20 03:21:01;;;;;;;0.40;0.35;;;;;;;2.18;73.15;93356.88;5093972;28;20058;-55
2021/03/20 03:23:31;;;;;;;1.85;1.75;;;;;;;2.20;72.67;93346.97;5093889;28;20048;-54
2021/03/20 03:26:10;;;;;;;2.50;1.85;;;;;;;2.16;72.61;93359.34;5124494;27;20058;-53
2021/03/20 03:28:37;;;;;;;1.17;1.17;;;;;;;2.23;73.32;93362.31;5114296;27;20090;-60
2021/03/20 03:31:16;;;;;;;2.30;2.03;;;;;;;2.28;73.70;93360.81;5114111;27;20031;-59
2021/03/20 03:33:59;;;;;;;4.47;1.63;;;;;;;2.38;71.71;93362.06;5132430;27;20579;-59
2021/03/20 03:36:27;;;;;;;2.83;2.63;;;;;;;2.39;71.66;93365.50;5114081;27;20051;-59
2021/03/20 03:39:17;;;;;;;4.53;3.28;;;;;;;2.45;72.47;93364.25;5132512;27;20023;-59
2021/03/20 03:41:43;;;;;;;1.42;1.42;;;;;;;2.31;72.00;93365.28;5131538;27;20051;-59
2021/03/20 03:44:09;;;;;;;3.65;2.58;;;;;;;2.39;72.55;93368.22;5131554;27;20553;-59
2021/03/20 03:46:38;;;;;;;1.90;0.95;;;;;;;2.43;72.67;93360.53;5132105;27;20134;-59
2021/03/20 03:49:06;;;;;;;2.67;1.48;;;;;;;2.52;72.42;93361.03;5113663;27;20062;-59
2021/03/20 03:51:32;;;;;;;2.10;1.98;;;;;;;2.51;71.56;93364.25;5132166;27;20104;-59
2021/03/20 03:53:59;;;;;;;2.63;2.47;;;;;;;2.46;71.86;93365.75;5132079;27;20491;-59
2021/03/20 03:56:53;;;;;;;2.13;2.03;;;;;;;2.40;72.28;93373.19;5121138;27;20023;-57
2021/03/20 03:59:50;;;;;;;1.65;1.55;;;;;;;2.30;72.09;93372.69;5097768;28;20054;-57
2021/03/20 04:02:29;;;;;;;1.50;1.40;;;;;;;2.40;71.97;93370.47;5111441;28;20104;-58
2021/03/20 04:05:24;;;;;;;0.60;0.60;;;;;;;2.49;70.92;93366.75;5111383;28;20031;-58
2021/03/20 04:08:28;;;;;;;2.13;2.03;;;;;;;2.41;71.62;93368.47;5111273;28;20445;-57
2021/03/20 04:11:02;;;;;;;0.80;0.80;;;;;;;2.31;71.88;93365.28;5111245;28;20084;-57
2021/03/20 04:13:32;;;;;;;1.42;1.40;;;;;;;2.49;71.75;93366.75;5092935;28;20085;-58
2021/03/20 04:16:03;;;;;;;;;;;;;;;2.47;70.73;93363.78;5093354;28;20041;-57
2021/03/20 04:18:56;;;;;;;1.85;1.75;;;;;;;2.27;72.41;93362.06;5110898;28;19915;-58
2021/03/20 04:21:30;;;;;;;2.55;2.35;;;;;;;2.22;72.04;93365.53;5110942;28;20595;-57
2021/03/20 04:24:25;;;;;;;1.95;1.85;;;;;;;2.35;70.98;93365.00;5089409;28;20032;-57
2021/03/20 04:26:56;;;;;;;2.10;1.67;;;;;;;2.48;70.54;93363.25;5090479;28;20127;-58
2021/03/20 04:29:33;;;;;;;2.40;1.83;;;;;;;2.54;70.30;93355.06;5090615;28;20026;-58
2021/03/20 04:32:04;;;;;;;4.70;1.00;;;;;;;2.44;71.01;93365.50;5089389;28;20020;-58
2021/03/20 04:34:40;;;;;;;2.55;2.00;;;;;;;2.43;70.46;93369.47;5089286;28;20024;-59
2021/03/20 04:37:09;;;;;;;2.88;2.70;;;;;;;2.51;71.02;93367.72;5090496;28;20024;-57
2021/03/20 04:39:39;;;;;;;1.10;1.10;;;;;;;2.51;71.21;93365.00;5089161;28;20139;-59
2021/03/20 04:42:05;;;;;;;0.80;0.80;;;;;;;2.55;71.98;93367.47;5089163;28;20574;-60
2021/03/20 04:44:34;;;;;;;1.00;1.00;;;;;;;2.66;71.29;93378.34;5089153;28;20024;-59
2021/03/20 04:46:59;;;;;;;;;;;;;;;2.60;70.74;93369.44;5089675;28;20060;-59
2021/03/20 04:49:43;;;;;;;0.43;0.43;;;;;;;2.70;71.65;93384.28;5110467;28;19958;-59
2021/03/20 04:52:14;;;;;;;2.50;2.40;;;;;;;2.69;70.71;93369.91;5131382;28;20047;-59
2021/03/20 04:54:40;;;;;;;1.52;1.45;;;;;;;2.59;70.25;93368.69;5115484;27;20031;-60
2021/03/20 04:57:08;;;;;;;0.60;0.60;;;;;;;2.58;71.09;93380.81;5135493;27;20017;-60
2021/03/20 05:00:03;;;;;;;2.57;1.43;;;;;;;2.64;70.63;93372.66;5135429;27;20465;-60
2021/03/20 05:02:49;;;;;;;2.38;2.28;;;;;;;2.72;70.21;93370.88;5093247;27;20113;-60
2021/03/20 05:05:21;;;;;;;2.38;2.28;;;;;;;2.64;69.89;93367.91;5134066;27;20453;-60
2021/03/20 05:07:47;;;;;;;1.45;1.38;;;;;;;2.66;69.90;93367.44;5135020;27;20027;-60
2021/03/20 05:10:44;;;;;;;1.65;1.55;;;;;;;2.91;69.27;93355.44;5117105;27;20034;-60
2021/03/20 05:13:27;;;;;;;1.20;1.20;;;;;;;2.89;69.00;93361.41;5096596;27;20042;-56
2021/03/20 05:16:00;;;;;;;2.28;1.08;;;;;;;2.77;69.44;93353.78;5076261;28;20412;-55
2021/03/20 05:18:26;;;;;;;5.93;2.42;;;;;;;2.91;69.90;93355.44;5076229;28;20035;-55
2021/03/20 05:20:51;;;;;;;1.95;1.85;;;;;;;2.94;69.69;93352.47;5094043;28;20016;-54
2021/03/20 05:23:17;;;;;;;1.67;1.63;;;;;;;2.98;69.93;93360.41;5094275;28;20027;-56
2021/03/20 05:25:42;;;;;;;1.33;1.33;;;;;;;2.99;69.21;93373.53;5093657;28;20051;-55
2021/03/20 05:28:07;;;;;;;3.13;2.92;;;;;;;3.01;69.88;93368.31;5093816;28;20053;-50
2021/03/20 05:30:33;;;;;;;2.50;2.40;;;;;;;3.08;70.37;93367.03;5093833;28;20034;-58
2021/03/20 05:32:58;;;;;;;2.80;2.60;;;;;;;3.07;69.64;93366.28;5094050;28;20024;-54
2021/03/20 05:35:26;;;;;;;1.05;1.05;;;;;;;3.07;69.28;93368.28;5093905;28;20016;-54
2021/03/20 05:37:52;;;;;;;1.70;1.60;;;;;;;3.16;70.26;93370.75;5093873;28;20024;-54
2021/03/20 05:40:28;;;;;;;1.60;1.08;;;;;;;3.26;70.33;93382.09;5093767;28;20024;-51
2021/03/20 05:43:06;;;;;;;1.08;1.02;;;;;;;3.29;68.77;93368.19;5093768;28;20036;-50
2021/03/20 05:45:45;;;;;;;3.65;1.08;;;;;;;3.30;69.12;93374.38;5093560;28;20050;-52
2021/03/20 05:48:21;;;;;;;2.33;1.48;;;;;;;3.24;69.52;93373.66;5092322;28;20153;-50
2021/03/20 05:50:58;;;;;;;2.05;1.88;;;;;;;3.24;70.17;93376.41;5092399;28;20028;-51
2021/03/20 05:53:46;;;;;;;1.67;1.13;;;;;;;3.33;70.17;93376.13;5093475;28;20089;-50
2021/03/20 05:56:39;;;;;;;1.52;1.42;;;;;;;3.28;68.76;93380.34;5107436;27;20031;-53
2021/03/20 05:59:13;;;;;;;1.27;1.17;;;;;;;3.22;68.21;93384.34;5122974;27;20041;-49
2021/03/20 06:02:21;;;;;;;2.58;2.03;;;;;;;3.23;69.67;93392.03;5120131;27;20102;-48
2021/03/20 06:04:58;;;;;;;2.53;2.33;;;;;;;3.30;69.46;93393.47;5122171;27;20024;-49
2021/03/20 06:07:49;;;;;;;2.63;1.63;;;;;;;3.26;68.98;93391.03;5120908;27;20269;-49
2021/03/20 06:10:29;;;;;;;0.60;0.60;;;;;;;3.23;69.77;93399.47;5124622;27;20023;-49
2021/03/20 06:13:17;;;;;;;1.90;1.80;;;;;;;3.40;68.96;93394.69;5103982;27;20022;-48
2021/03/20 06:15:52;;;;;;;1.55;1.27;;;;;;;3.34;68.14;93388.50;5105280;27;20415;-48
2021/03/20 06:18:20;;;;;;;1.92;1.83;;;;;;;3.39;67.63;93393.19;5124224;27;20030;-50
2021/03/20 06:20:55;;;;;;;1.80;1.55;;;;;;;3.38;68.14;93397.19;5123115;27;20027;-52
2021/03/20 06:23:27;;;;;;;1.00;1.00;;;;;;;3.39;68.47;93393.19;5093186;27;20042;-50
2021/03/20 06:25:58;;;;;;;1.70;1.65;;;;;;;3.42;67.93;93390.19;5121930;27;20538;-53
2021/03/20 06:28:39;;;;;;;1.20;1.20;;;;;;;3.47;67.41;93394.13;5120316;27;20026;-53
2021/03/20 06:31:34;;;;;;;1.10;1.08;;;;;;;3.42;66.88;93373.09;5102614;27;20048;-50
2021/03/20 06:34:16;;;;;;;0.90;0.68;;;;;;;3.46;66.55;93389.94;5117659;27;20038;-51
2021/03/20 06:36:52;;;;;;;1.45;1.45;;;;;;;3.54;67.23;93388.16;5113556;27;20038;-49
2021/03/20 06:39:40;;;;;;;1.42;1.33;;;;;;;3.58;67.59;93385.91;5094040;28;20020;-53
2021/03/20 06:42:25;;;;;;;2.53;1.70;;;;;;;3.79;66.69;93395.94;5092640;28;20077;-55
2021/03/20 06:45:24;;;;;;;0.88;0.73;;;;;;;3.84;65.35;93395.16;5091364;28;20031;-55
2021/03/20 06:47:51;;;;;;;;;;;;;;;3.98;64.11;93401.53;5081332;28;20048;-51
2021/03/20 06:50:23;;;;;;;2.78;1.60;;;;;;;3.95;64.35;93399.81;5104255;28;19921;-52
2021/03/20 06:52:57;;;;;;;1.80;1.70;;;;;;;4.05;63.31;93400.97;5112667;28;20032;-54
2021/03/20 06:55:31;;;;;;;1.30;1.30;;;;;;;4.02;64.15;93395.78;5110588;28;20491;-51
2021/03/20 06:57:57;;;;;;;3.22;3.03;;;;;;;4.08;65.42;93396.50;5112715;28;20028;-52
2021/03/20 07:00:27;;;;;;;4.80;3.70;;;;;;;4.16;65.45;93395.44;5091360;28;20076;-58
2021/03/20 07:03:01;;;;;;;6.95;2.35;;;;;;;4.27;65.77;93400.06;5092238;28;20028;-58
2021/03/20 07:05:51;;;;;;;2.25;2.15;;;;;;;4.32;65.89;93394.56;5115495;27;20038;-52
2021/03/20 07:08:33;;;;;;;2.50;2.40;;;;;;;4.48;65.52;93406.63;5132877;27;20023;-57
2021/03/20 07:11:00;;;;;;;5.13;4.72;;;;;;;4.49;65.44;93397.91;5114514;27;20030;-58
2021/03/20 07:13:26;;;;;;;2.80;2.60;;;;;;;4.49;65.30;93388.94;5122271;27;20031;-58
2021/03/20 07:16:18;;;;;;;2.30;2.20;;;;;;;4.77;65.40;93394.91;5123064;27;20031;-49
2021/03/20 07:18:49;;;;;;;2.40;2.20;;;;;;;4.78;65.04;93401.88;5115994;27;20043;-48
2021/03/20 07:21:23;;;;;;;0.82;0.82;;;;;;;5.12;64.37;93400.25;5118712;27;20088;-48
2021/03/20 07:23:57;;;;;;;3.28;3.08;;;;;;;5.27;63.46;93392.38;5120993;27;20092;-50
2021/03/20 07:26:23;;;;;;;1.58;1.48;;;;;;;5.63;61.88;93406.59;5102875;27;20569;-51
2021/03/20 07:28:51;;;;;;;0.63;0.63;;;;;;;5.74;60.90;93400.25;5122850;27;20125;-52
2021/03/20 07:31:17;;;;;;;4.13;2.53;;;;;;;5.93;60.79;93390.06;5086029;27;20034;-49
2021/03/20 07:33:48;;;;;;;2.22;1.20;;;;;;;5.77;60.34;93401.94;5103384;27;20027;-50
2021/03/20 07:36:19;;;;;;;1.50;1.42;;;;;;;5.76;60.88;93392.97;5120158;27;20103;-51
2021/03/20 07:38:46;;;;;;;1.42;1.00;;;;;;;5.88;61.15;93397.09;5110130;28;20042;-52
2021/03/20 07:41:16;;;;;;;2.00;1.88;;;;;;;5.63;61.13;93389.44;5111388;28;20027;-49
2021/03/20 07:43:57;;;;;;;0.90;0.70;;;;;;;5.53;61.08;93402.00;5111194;28;20023;-49
2021/03/20 07:46:23;;;;;;;1.67;1.58;;;;;;;5.59;60.96;93399.97;5119023;27;20488;-47
2021/03/20 07:49:02;;;;;;;1.70;1.60;;;;;;;5.51;60.91;93397.06;5093570;28;20433;-50
2021/03/20 07:51:28;;;;;;;1.50;1.40;;;;;;;5.47;60.74;93387.66;5111657;28;20027;-47
2021/03/20 07:53:53;;;;;;;0.85;0.85;;;;;;;5.48;61.37;93397.34;5111449;28;20028;-58
2021/03/20 07:56:32;;;;;;;0.68;0.68;;;;;;;5.43;61.21;93404.38;5113750;27;20046;-54
2021/03/20 07:59:05;;;;;;;1.02;1.02;;;;;;;5.37;61.29;93401.69;5074357;28;20082;-54
2021/03/20 08:01:35;;;;;;;2.22;2.05;;;;;;;5.18;61.99;93389.97;5091086;28;20040;-57
2021/03/20 08:04:09;;;;;;;1.73;1.63;;;;;;;5.38;61.27;93394.22;5078333;28;20503;-54
2021/03/20 08:06:35;;;;;;;1.42;1.35;;;;;;;5.57;60.95;93394.97;5119084;27;20433;-58
2021/03/20 08:09:22;;;;;;;0.95;0.95;;;;;;;5.63;60.53;93394.91;5106275;27;20054;-53
2021/03/20 08:11:58;;;;;;;4.38;2.50;;;;;;;5.88;60.39;93399.81;5114925;27;20510;-58
2021/03/20 08:14:38;;;;;;;1.80;1.67;;;;;;;6.02;60.06;93395.16;5117216;27;20031;-55
2021/03/20 08:17:10;;;;;;;3.40;1.75;;;;;;;6.21;59.04;93392.38;5110436;28;20484;-54
2021/03/20 08:19:35;;;;;;;2.25;1.95;;;;;;;6.29;58.92;93391.25;5092682;28;20077;-55
2021/03/20 08:22:07;;;;;;;2.00;1.90;;;;;;;6.48;58.68;93402.91;5110623;28;20023;-53
2021/03/20 08:24:45;;;;;;;2.58;2.38;;;;;;;6.73;57.85;93401.50;5108422;28;20066;-50
2021/03/20 08:27:20;;;;;;;1.27;1.17;;;;;;;6.86;57.02;93403.50;5117857;27;20029;-59
2021/03/20 08:30:24;;;;;;;1.02;1.02;;;;;;;6.78;56.73;93400.63;5115273;28;20038;-58
2021/03/20 08:32:58;;;;;;;0.85;0.50;;;;;;;6.73;55.34;93406.25;5112315;27;20019;-52
2021/03/20 08:35:32;;;;;;;1.25;1.15;;;;;;;6.64;55.90;93409.38;5125398;27;20106;-55
2021/03/20 08:38:19;;;;;;;2.80;1.92;;;;;;;6.66;55.41;93404.84;5091704;28;20028;-51
2021/03/20 08:41:06;;;;;;;0.98;0.93;;;;;;;6.52;56.14;93411.56;5119467;27;20031;-55
2021/03/20 08:43:45;;;;;;;6.00;2.42;;;;;;;6.31;56.08;93416.13;5085810;28;20106;-58
2021/03/20 08:46:34;;;;;;;1.58;1.55;;;;;;;6.08;56.04;93418.47;5071151;28;20512;-58
2021/03/20 08:49:08;;;;;;;0.90;0.90;;;;;;;5.97;57.53;93415.91;5081121;28;20039;-44
2021/03/20 08:52:19;;;;;;;3.58;2.17;;;;;;;6.10;56.95;93417.94;5089261;28;20031;-61
2021/03/20 08:54:50;;;;;;;0.50;0.50;;;;;;;5.84;57.55;93423.28;5026467;28;20471;-60
2021/03/20 08:57:46;;;;;;;1.13;1.13;;;;;;;5.87;57.52;93431.22;5023360;28;20067;-59
2021/03/20 09:00:19;;;;;;;3.13;1.95;;;;;;;5.93;57.44;93425.66;5069577;28;20405;-55
2021/03/20 09:02:45;;;;;;;1.98;1.88;;;;;;;6.03;57.72;93424.03;5071376;28;20031;-54
2021/03/20 09:05:15;;;;;;;0.85;0.55;;;;;;;6.06;57.13;93436.69;5079418;28;20028;-57
2021/03/20 09:08:09;;;;;;;1.58;1.15;;;;;;;6.11;56.80;93444.09;5069402;28;20027;-52
2021/03/20 09:10:41;;;;;;;0.95;0.95;;;;;;;6.06;57.42;93434.69;5049854;28;20742;-54
2021/03/20 09:13:20;;;;;;;1.30;1.20;;;;;;;5.78;58.10;93406.88;5087338;28;20103;-59
2021/03/20 09:15:58;;;;;;;0.80;0.80;;;;;;;5.87;58.67;93417.50;5069444;28;20027;-57
2021/03/20 09:18:24;;;;;;;0.50;0.50;;;;;;;6.03;58.64;93418.53;5069216;28;20028;-60
2021/03/20 09:20:53;;;;;;;0.52;0.52;;;;;;;6.10;59.47;93421.44;5069657;28;20035;-59
2021/03/20 09:23:46;;;;;;;1.60;1.50;;;;;;;6.17;58.63;93405.66;5069994;28;20824;-58
2021/03/20 09:26:33;;;;;;;1.10;1.10;;;;;;;6.11;58.16;93398.22;5067389;28;20580;-60
2021/03/20 09:29:12;;;;;;;0.95;0.95;;;;;;;6.21;58.24;93409.56;5089682;28;20082;-59
2021/03/20 09:31:55;;;;;;;;;;;;;;;6.46;58.96;93413.66;5090409;28;20063;-58
2021/03/20 09:34:33;;;;;;;1.38;1.38;;;;;;;6.58;57.37;93403.25;5071721;28;19912;-59
2021/03/20 09:37:01;;;;;;;1.65;0.77;;;;;;;6.89;57.00;93410.69;5090065;28;20028;-59
2021/03/20 09:39:49;;;;;;;1.10;1.00;;;;;;;7.33;57.85;93417.38;5089921;28;20489;-56
2021/03/20 09:42:24;;;;;;;2.13;2.03;;;;;;;7.83;56.81;93408.13;5092771;28;20032;-59
2021/03/20 09:45:10;;;;;;;1.05;0.95;;;;;;;7.98;56.13;93411.03;5093357;28;20505;-58
2021/03/20 09:47:48;;;;;;;1.02;0.95;;;;;;;8.24;53.63;93402.72;5083239;28;20081;-55
2021/03/20 09:50:20;;;;;;;1.02;0.68;;;;;;;8.56;53.05;93403.25;5095463;28;20035;-59
2021/03/20 09:52:49;;;;;;;1.48;1.38;;;;;;;8.62;53.80;93395.59;5113853;28;20071;-58
2021/03/20 09:55:30;;;;;;;3.42;1.85;;;;;;;8.49;54.86;93392.91;5113357;28;20788;-59
2021/03/20 09:58:19;;;;;;;1.50;1.40;;;;;;;8.65;52.60;93399.28;5106463;28;20031;-55
2021/03/20 10:00:44;;;;;;;2.30;1.58;;;;;;;8.44;52.65;93398.53;5077691;28;20093;-47
2021/03/20 10:03:10;;;;;;;1.17;0.73;;;;;;;8.09;54.33;93397.81;5094151;28;20028;-58
2021/03/20 10:05:36;;;;;;;1.65;1.55;;;;;;;7.94;55.42;93394.16;5091429;28;20032;-58
2021/03/20 10:08:17;;;;;;;5.40;2.15;;;;;;;7.62;56.11;93392.28;5081325;28;20484;-55
2021/03/20 10:10:46;;;;;;;1.13;1.13;;;;;;;7.76;56.13;93395.03;5111057;27;20416;-54
2021/03/20 10:13:17;;;;;;;0.50;0.50;;;;;;;7.89;55.55;93395.75;5106341;27;20032;-58
2021/03/20 10:16:19;;;;;;;1.27;1.17;;;;;;;8.51;54.72;93395.84;5111586;27;20036;-57
2021/03/20 10:18:51;;;;;;;2.40;1.40;;;;;;;8.73;53.38;93391.81;5078907;28;20035;-48
2021/03/20 10:21:21;;;;;;;1.08;0.93;;;;;;;8.95;52.83;93364.47;5101864;28;20079;-59
2021/03/20 10:24:23;;;;;;;1.08;1.00;;;;;;;8.65;52.62;93352.50;5089026;28;20492;-59
2021/03/20 10:26:56;;;;;;;1.23;1.23;;;;;;;8.60;52.30;93358.88;5042888;27;20564;-58
2021/03/20 10:29:26;;;;;;;2.03;1.83;;;;;;;8.29;53.64;93366.13;5113844;27;20049;-53
2021/03/20 10:31:53;;;;;;;3.08;1.48;;;;;;;8.06;54.65;93365.88;5113976;27;20047;-61
2021/03/20 10:34:25;;;;;;;2.15;1.95;;;;;;;7.89;55.67;93373.75;5122076;27;20023;-60
2021/03/20 10:37:08;;;;;;;1.88;1.63;;;;;;;7.80;55.13;93363.19;5120302;27;20035;-59
2021/03/20 10:39:41;;;;;;;1.38;1.27;;;;;;;7.67;56.09;93371.47;5110425;27;20492;-59
2021/03/20 10:42:16;;;;;;;0.93;0.90;;;;;;;7.51;55.19;93367.06;5097905;28;20036;-58
2021/03/20 10:44:44;;;;;;;0.60;0.60;;;;;;;7.55;56.73;93368.25;5079698;28;20486;-57
2021/03/20 10:47:14;;;;;;;1.52;1.33;;;;;;;7.44;56.14;93359.47;5090761;28;20028;-57
2021/03/20 10:49:42;;;;;;;3.00;2.80;;;;;;;7.42;55.27;93357.28;5097782;28;20039;-55
2021/03/20 10:52:18;;;;;;;1.00;1.00;;;;;;;7.45;57.10;93356.19;5092489;28;20404;-55
2021/03/20 10:54:49;;;;;;;1.83;1.73;;;;;;;7.49;57.81;93366.88;5111060;28;20027;-56
2021/03/20 10:57:19;;;;;;;0.50;0.50;;;;;;;7.51;55.85;93358.84;5110386;28;20027;-59
2021/03/20 10:59:46;;;;;;;2.17;0.82;;;;;;;7.73;55.40;93358.38;5107719;28;20103;-59
2021/03/20 11:02:41;;;;;;;3.33;2.58;;;;;;;8.01;54.68;93363.25;5081376;28;20205;-57
2021/03/20 11:05:32;;;;;;;1.45;1.40;;;;;;;7.73;54.79;93363.88;5069421;28;20040;-57
2021/03/20 11:08:24;;;;;;;1.75;1.65;;;;;;;7.57;54.78;93356.72;5108035;27;20098;-56
2021/03/20 11:11:14;;;;;;;2.03;1.63;;;;;;;7.21;56.93;93367.41;5111027;27;20055;-61
2021/03/20 11:13:42;;;;;;;3.90;2.50;;;;;;;7.02;56.68;93368.81;5091431;28;20055;-59
2021/03/20 11:16:21;;;;;;;0.75;0.75;;;;;;;6.86;57.19;93354.84;5082695;28;20558;-57
2021/03/20 11:19:15;;;;;;;0.70;0.70;;;;;;;6.69;58.24;93346.16;5088323;28;20039;-61
2021/03/20 11:21:44;;;;;;;0.73;0.73;;;;;;;6.60;58.89;93334.88;5106437;28;20043;-58
2021/03/20 11:24:34;;;;;;;4.80;2.38;;;;;;;6.50;58.24;93334.53;5108839;27;20123;-59
2021/03/20 11:27:21;;;;;;;1.77;1.63;;;;;;;6.48;60.55;93333.59;5109672;27;20512;-60
2021/03/20 11:29:50;;;;;;;2.75;2.20;;;;;;;6.62;59.22;93337.84;5106581;27;20053;-60
2021/03/20 11:32:41;;;;;;;1.75;1.27;;;;;;;6.34;60.00;93332.84;5106951;27;20421;-60
2021/03/20 11:35:11;;;;;;;1.77;1.67;;;;;;;6.39;59.96;93323.75;5081228;27;20038;-61
2021/03/20 11:37:37;;;;;;;2.75;2.55;;;;;;;6.40;60.16;93313.53;5114606;27;20678;-54
2021/03/20 11:40:06;;;;;;;3.15;1.90;;;;;;;6.40;59.52;93308.06;5110810;27;20050;-52
2021/03/20 11:42:37;;;;;;;1.33;1.23;;;;;;;6.27;60.73;93308.03;5117941;27;20019;-56
2021/03/20 11:45:09;;;;;;;1.42;1.33;;;;;;;6.17;62.25;93317.94;5121025;27;20023;-61
2021/03/20 11:47:36;;;;;;;0.80;0.57;;;;;;;6.21;62.03;93312.88;5120078;27;20137;-57
2021/03/20 11:50:14;;;;;;;1.48;1.48;;;;;;;6.16;62.02;93310.97;5118934;27;20523;-59
2021/03/20 11:52:50;;;;;;;2.05;1.20;;;;;;;6.27;62.03;93308.03;5119820;27;20022;-58
2021/03/20 11:55:19;;;;;;;1.27;1.17;;;;;;;6.10;62.02;93294.63;5099324;27;20450;-59
2021/03/20 11:57:45;;;;;;;1.77;1.67;;;;;;;6.26;61.65;93298.34;5098139;28;20458;-60
2021/03/20 12:00:40;;;;;;;1.48;1.10;;;;;;;6.39;61.65;93301.81;5113090;27;20023;-59
2021/03/20 12:03:20;;;;;;;1.33;1.33;;;;;;;6.36;61.48;93310.38;5110770;27;20034;-52
2021/03/20 12:05:47;;;;;;;0.82;0.82;;;;;;;6.33;61.80;93300.44;5115003;27;20027;-56
2021/03/20 12:08:24;;;;;;;3.30;2.10;;;;;;;6.21;62.02;93308.13;5116926;27;20027;-59
2021/03/20 12:10:54;;;;;;;2.42;1.55;;;;;;;6.17;61.87;93304.22;5117701;27;20034;-59
2021/03/20 12:13:57;;;;;;;1.27;1.27;;;;;;;6.17;62.23;93304.97;5119399;27;20027;-60
2021/03/20 12:16:28;;;;;;;1.17;1.17;;;;;;;6.07;62.11;93301.13;5088188;27;20023;-60
2021/03/20 12:19:16;;;;;;;2.67;1.65;;;;;;;5.93;63.21;93289.38;5119624;27;20027;-60
2021/03/20 12:21:58;;;;;;;1.25;1.08;;;;;;;5.84;62.97;93281.59;5117481;27;20027;-58